createdAt,value
2022-08-27T17:01:52.616Z,4.03
2022-08-27T17:04:29.709Z,3.83
2022-08-27T17:07:00.051Z,4.15
2022-08-27T17:09:27.404Z,4.30
2022-08-27T17:11:57.944Z,4.35
2022-08-27T17:14:26.902Z,4.22
2022-08-27T17:16:54.427Z,3.95
2022-08-27T17:19:24.477Z,3.42
2022-08-27T17:21:52.532Z,4.20
2022-08-27T17:24:19.937Z,3.85
2022-08-27T17:26:47.281Z,3.95
2022-08-27T17:29:14.737Z,4.60
2022-08-27T17:31:43.819Z,3.65
2022-08-27T17:34:22.495Z,3.67
2022-08-27T17:36:51.781Z,4.38
2022-08-27T17:39:20.920Z,4.38
2022-08-27T17:41:50.909Z,3.78
2022-08-27T17:44:31.805Z,4.40
2022-08-27T17:47:03.642Z,4.07
2022-08-27T17:49:31.500Z,4.32
2022-08-27T17:52:03.971Z,4.43
2022-08-27T17:54:46.568Z,4.35
2022-08-27T17:57:28.476Z,4.75
2022-08-27T17:59:59.452Z,4.35
2022-08-27T18:02:38.984Z,4.20
2022-08-27T18:05:13.393Z,4.47
2022-08-27T18:07:43.603Z,5.38
2022-08-27T18:10:14.604Z,4.57
2022-08-27T18:12:43.412Z,4.57
2022-08-27T18:15:29.726Z,4.30
2022-08-27T18:17:58.726Z,5.20
2022-08-27T18:20:33.042Z,5.05
2022-08-27T18:23:01.028Z,5.45
2022-08-27T18:25:35.370Z,5.20
2022-08-27T18:28:09.917Z,5.03
2022-08-27T18:30:39.803Z,5.40
2022-08-27T18:33:08.162Z,5.47
2022-08-27T18:35:37.147Z,5.68
2022-08-27T18:38:05.163Z,5.57
2022-08-27T18:40:41.899Z,5.22
2022-08-27T18:43:09.645Z,5.18
2022-08-27T18:45:37.859Z,6.20
2022-08-27T18:48:16.843Z,6.05
2022-08-27T18:50:49.627Z,5.07
2022-08-27T18:53:22.526Z,5.32
2022-08-27T18:55:52.105Z,5.47
2022-08-27T18:58:19.944Z,5.53
2022-08-27T19:00:53.510Z,5.43
2022-08-27T19:03:50.346Z,5.47
2022-08-27T19:06:20.519Z,5.18
2022-08-27T19:08:49.817Z,6.68
2022-08-27T19:11:18.217Z,6.23
2022-08-27T19:13:47.111Z,5.55
2022-08-27T19:16:43.286Z,5.53
2022-08-27T19:19:17.257Z,5.95
2022-08-27T19:21:50.640Z,5.95
2022-08-27T19:24:20.684Z,5.82
2022-08-27T19:26:50.383Z,6.27
2022-08-27T19:29:19.788Z,6.30
2022-08-27T19:31:47.655Z,6.50
2022-08-27T19:34:15.278Z,6.30
2022-08-27T19:36:43.709Z,6.22
2022-08-27T19:39:13.806Z,6.75
2022-08-27T19:41:41.243Z,6.63
2022-08-27T19:44:08.891Z,5.80
2022-08-27T19:46:38.068Z,6.35
2022-08-27T19:49:05.693Z,6.10
2022-08-27T19:51:33.726Z,6.07
2022-08-27T19:54:01.233Z,6.22
2022-08-27T19:56:29.459Z,6.60
2022-08-27T19:59:00.623Z,6.47
2022-08-27T20:01:33.349Z,6.40
2022-08-27T20:04:01.074Z,7.50
2022-08-27T20:06:29.794Z,6.82
2022-08-27T20:09:06.532Z,7.47
2022-08-27T20:11:34.269Z,7.18
2022-08-27T20:14:01.800Z,7.38
2022-08-27T20:16:29.406Z,6.22
2022-08-27T20:19:00.220Z,7.22
2022-08-27T20:21:28.800Z,6.63
2022-08-27T20:23:56.711Z,7.00
2022-08-27T20:26:25.265Z,6.97
2022-08-27T20:28:53.303Z,8.00
2022-08-27T20:31:20.669Z,7.65
2022-08-27T20:33:48.073Z,7.35
2022-08-27T20:36:15.544Z,6.97
2022-08-27T20:38:43.483Z,7.05
2022-08-27T20:41:11.138Z,7.22
2022-08-27T20:43:38.583Z,6.95
2022-08-27T20:46:06.185Z,7.05
2022-08-27T20:48:37.611Z,7.07
2022-08-27T20:51:04.979Z,7.97
2022-08-27T20:53:32.356Z,7.85
2022-08-27T20:55:59.853Z,8.55
2022-08-27T20:58:45.993Z,8.23
2022-08-27T21:01:13.709Z,8.35
2022-08-27T21:03:41.389Z,9.05
2022-08-27T21:06:09.109Z,8.15
2022-08-27T21:08:38.991Z,8.00
2022-08-27T21:11:15.858Z,8.57
2022-08-27T21:13:55.683Z,8.38
2022-08-27T21:16:25.297Z,8.07
2022-08-27T21:18:53.847Z,7.75
2022-08-27T21:21:22.174Z,8.38
2022-08-27T21:23:49.540Z,9.82
2022-08-27T21:26:17.049Z,9.10
2022-08-27T21:28:44.522Z,8.18
2022-08-27T21:31:12.032Z,8.38
2022-08-27T21:33:39.787Z,7.80
2022-08-27T21:36:11.801Z,8.20
2022-08-27T21:38:40.178Z,8.93
2022-08-27T21:41:08.349Z,9.18
2022-08-27T21:43:35.980Z,8.25
2022-08-27T21:46:04.234Z,8.00
2022-08-27T21:48:31.658Z,8.52
2022-08-27T21:50:58.958Z,7.85
2022-08-27T21:53:26.213Z,8.30
2022-08-27T21:55:54.218Z,7.30
2022-08-27T21:58:26.194Z,7.95
2022-08-27T22:00:54.403Z,8.82
2022-08-27T22:03:23.960Z,7.90
2022-08-27T22:05:52.444Z,7.20
2022-08-27T22:08:22.580Z,8.20
2022-08-27T22:10:55.538Z,7.47
2022-08-27T22:13:23.754Z,7.72
2022-08-27T22:15:51.521Z,8.10
2022-08-27T22:18:19.623Z,7.80
2022-08-27T22:20:51.192Z,7.65
2022-08-27T22:23:18.569Z,8.50
2022-08-27T22:25:45.979Z,8.25
2022-08-27T22:28:14.686Z,8.48
2022-08-27T22:30:43.083Z,7.53
2022-08-27T22:33:10.643Z,7.70
2022-08-27T22:35:38.554Z,7.97
2022-08-27T22:38:07.112Z,6.82
2022-08-27T22:40:35.533Z,7.47
2022-08-27T22:43:05.145Z,7.70
2022-08-27T22:45:33.875Z,7.13
2022-08-27T22:48:01.564Z,7.90
2022-08-27T22:50:29.004Z,7.78
2022-08-27T22:52:56.316Z,8.13
2022-08-27T22:55:24.593Z,8.52
2022-08-27T22:57:54.724Z,8.00
2022-08-27T23:00:29.869Z,7.40
2022-08-27T23:02:58.007Z,7.47
2022-08-27T23:05:26.417Z,8.32
2022-08-27T23:07:54.815Z,8.50
2022-08-27T23:10:24.384Z,7.55
2022-08-27T23:12:53.687Z,7.87
2022-08-27T23:15:26.377Z,7.07
2022-08-27T23:17:54.317Z,8.30
2022-08-27T23:20:23.680Z,8.48
2022-08-27T23:22:52.901Z,8.82
2022-08-27T23:25:43.562Z,7.28
2022-08-27T23:28:14.974Z,7.75
2022-08-27T23:30:44.930Z,8.02
2022-08-27T23:33:13.236Z,7.97
2022-08-27T23:35:44.377Z,8.27
2022-08-27T23:38:12.111Z,6.78
2022-08-27T23:40:39.776Z,7.22
2022-08-27T23:43:07.302Z,7.53
2022-08-27T23:45:39.702Z,7.22
2022-08-27T23:48:08.152Z,7.63
2022-08-27T23:50:35.486Z,8.25
2022-08-27T23:53:05.140Z,7.63
2022-08-27T23:55:33.842Z,6.97
2022-08-27T23:58:02.621Z,7.38
